createdAt,value
2018-06-10T00:03:01.442Z,25.4
2018-06-10T00:08:01.448Z,24.9
2018-06-10T00:18:01.516Z,25.0
2018-06-10T00:23:01.394Z,25.4
2018-06-10T00:28:01.514Z,25.8
2018-06-10T00:33:01.430Z,26.6
2018-06-10T00:38:01.404Z,27.6
2018-06-10T00:43:01.350Z,28.6
2018-06-10T00:48:01.478Z,29.2
2018-06-10T00:53:01.419Z,30.4
2018-06-10T00:58:01.541Z,31.3
2018-06-10T01:03:01.402Z,31.2
2018-06-10T01:08:01.517Z,31.9
2018-06-10T01:18:01.454Z,31.8
2018-06-10T01:23:01.410Z,31.5
2018-06-10T01:28:01.578Z,31.8
2018-06-10T01:33:01.383Z,31.6
2018-06-10T01:38:01.509Z,31.6
2018-06-10T01:43:01.384Z,31.6
2018-06-10T01:48:01.899Z,32.4
2018-06-10T01:53:01.361Z,33.0
2018-06-10T01:58:01.647Z,33.4
2018-06-10T02:03:01.401Z,34.6
2018-06-10T02:08:01.547Z,36.1
2018-06-10T02:13:01.579Z,37.8
2018-06-10T02:18:01.485Z,40.2
2018-06-10T02:23:01.449Z,43.3
2018-06-10T02:28:01.491Z,45.2
2018-06-10T02:33:01.392Z,46.6
2018-06-10T02:38:01.522Z,47.4
2018-06-10T02:43:01.761Z,46.5
2018-06-10T02:48:01.532Z,44.3
2018-06-10T02:53:01.350Z,42.6
2018-06-10T02:58:01.639Z,41.8
2018-06-10T03:03:01.393Z,40.7
2018-06-10T03:08:01.453Z,41.0
2018-06-10T03:13:01.389Z,42.7
2018-06-10T03:18:01.516Z,43.7
2018-06-10T03:23:01.418Z,44.6
2018-06-10T03:28:01.511Z,45.1
2018-06-10T03:33:01.382Z,45.3
2018-06-10T03:38:01.450Z,45.1
2018-06-10T03:43:01.444Z,45.1
2018-06-10T03:48:01.444Z,44.3
2018-06-10T03:53:01.390Z,44.4
2018-06-10T03:58:01.526Z,44.7
2018-06-10T04:03:01.392Z,45.4
2018-06-10T04:08:01.448Z,46.8
2018-06-10T04:13:01.380Z,49.2
2018-06-10T04:18:01.452Z,51.6
2018-06-10T04:23:01.416Z,53.4
2018-06-10T04:28:01.548Z,54.7
2018-06-10T04:33:01.386Z,56.7
2018-06-10T04:43:01.392Z,57.9
2018-06-10T04:48:01.394Z,58.4
2018-06-10T04:53:01.477Z,60.2
2018-06-10T04:58:01.444Z,61.2
2018-06-10T05:03:01.386Z,62.2
2018-06-10T05:08:01.514Z,62.9
2018-06-10T05:13:01.401Z,65.4
2018-06-10T05:18:06.393Z,66.3
2018-06-10T05:23:01.420Z,67.5
2018-06-10T05:28:01.455Z,66.8
2018-06-10T05:33:01.396Z,64.8
2018-06-10T05:38:01.511Z,61.3
2018-06-10T05:43:01.356Z,57.8
2018-06-10T05:48:01.506Z,53.8
2018-06-10T05:53:01.382Z,52.2
2018-06-10T05:58:01.451Z,51.6
2018-06-10T06:03:01.414Z,50.4
2018-06-10T06:08:01.454Z,49.6
2018-06-10T06:13:01.397Z,49.2
2018-06-10T06:18:01.521Z,48.4
2018-06-10T06:23:01.417Z,47.5
2018-06-10T06:29:01.512Z,47.2
2018-06-10T06:39:01.477Z,46.0
2018-06-10T06:44:01.357Z,45.6
2018-06-10T06:49:01.402Z,45.4
2018-06-10T06:54:01.392Z,44.2
2018-06-10T06:59:01.556Z,43.7
2018-06-10T07:05:01.558Z,43.3
2018-06-10T07:10:01.583Z,42.5
2018-06-10T07:15:02.439Z,42.2
2018-06-10T07:20:06.863Z,41.8
2018-06-10T07:25:01.419Z,39.4
2018-06-10T07:30:01.548Z,37.6
2018-06-10T07:35:01.432Z,35.2
2018-06-10T07:40:01.424Z,32.9
2018-06-10T07:45:01.397Z,30.8
2018-06-10T07:51:01.510Z,29.4
2018-06-10T07:56:06.521Z,28.6
2018-06-10T08:01:01.410Z,28.5
2018-06-10T08:06:01.426Z,28.4
2018-06-10T08:11:01.387Z,28.4
2018-06-10T08:16:01.391Z,29.0
2018-06-10T08:21:01.501Z,29.0
2018-06-10T08:26:01.586Z,28.8
2018-06-10T08:31:01.434Z,28.6
2018-06-10T08:36:01.558Z,29.2
2018-06-10T08:41:01.454Z,29.5
2018-06-10T08:46:01.422Z,29.4
2018-06-10T08:51:01.378Z,29.7
2018-06-10T08:56:01.486Z,30.3
2018-06-10T09:01:01.411Z,30.7
2018-06-10T09:06:01.578Z,31.2
2018-06-10T09:11:01.477Z,32.2
2018-06-10T09:16:01.393Z,32.8
2018-06-10T09:21:01.416Z,33.2
2018-06-10T09:26:01.508Z,33.6
2018-06-10T09:31:01.398Z,34.4
2018-06-10T09:36:06.455Z,34.7
2018-06-10T09:41:01.385Z,36.0
2018-06-10T09:46:01.512Z,37.5
2018-06-10T09:51:01.400Z,38.7
2018-06-10T09:56:01.522Z,39.9
2018-06-10T10:01:06.396Z,41.5
2018-06-10T10:06:01.457Z,42.1
2018-06-10T10:11:01.352Z,42.1
2018-06-10T10:16:01.522Z,42.3
2018-06-10T10:21:01.414Z,42.0
2018-06-10T10:26:01.519Z,41.3
2018-06-10T10:31:01.387Z,40.5
2018-06-10T10:36:01.457Z,40.1
2018-06-10T10:41:01.395Z,39.8
2018-06-10T10:46:01.459Z,39.8
2018-06-10T10:52:01.386Z,39.7
2018-06-10T10:57:01.446Z,40.2
2018-06-10T11:02:01.425Z,40.9
2018-06-10T11:07:01.588Z,40.7
2018-06-10T11:12:01.387Z,40.2
2018-06-10T11:17:01.460Z,39.8
2018-06-10T11:22:01.430Z,39.5
2018-06-10T11:27:01.538Z,38.2
2018-06-10T11:32:01.379Z,37.9
2018-06-10T11:37:01.506Z,38.1
2018-06-10T11:42:01.360Z,38.1
2018-06-10T11:47:01.456Z,37.6
2018-06-10T11:52:01.578Z,37.5
2018-06-10T11:57:01.480Z,36.9
2018-06-10T12:02:01.635Z,36.6
2018-06-10T12:07:01.476Z,36.0
2018-06-10T12:12:01.422Z,35.5
2018-06-10T12:17:01.627Z,35.3
2018-06-10T12:22:01.421Z,35.1
2018-06-10T12:27:01.483Z,34.4
2018-06-10T12:32:01.419Z,34.8
2018-06-10T12:37:01.492Z,35.0
2018-06-10T12:42:01.431Z,35.1
2018-06-10T12:47:01.493Z,35.0
2018-06-10T12:52:01.422Z,36.0
2018-06-10T12:57:01.565Z,36.4
2018-06-10T13:02:01.511Z,36.7
2018-06-10T13:07:06.463Z,36.8
2018-06-10T13:12:01.420Z,37.3
2018-06-10T13:17:01.937Z,36.7
2018-06-10T13:22:01.455Z,36.2
2018-06-10T13:27:06.562Z,36.1
2018-06-10T13:32:01.389Z,35.8
2018-06-10T13:37:01.474Z,36.1
2018-06-10T13:52:06.458Z,35.9
2018-06-10T13:57:01.591Z,36.2
2018-06-10T14:02:01.428Z,35.8
2018-06-10T14:07:01.543Z,35.4
2018-06-10T14:12:01.413Z,35.2
2018-06-10T14:17:01.442Z,35.1
2018-06-10T14:22:01.464Z,34.4
2018-06-10T14:27:01.490Z,33.3
2018-06-10T14:32:01.438Z,32.1
2018-06-10T14:37:06.528Z,31.4
2018-06-10T14:42:01.496Z,31.2
2018-06-10T14:47:06.522Z,31.5
2018-06-10T14:52:01.409Z,31.7
2018-06-10T14:57:01.422Z,32.0
2018-06-10T15:02:01.429Z,32.1
2018-06-10T15:07:06.594Z,32.1
2018-06-10T15:12:01.421Z,31.8
2018-06-10T15:17:01.466Z,32.3
2018-06-10T15:22:01.423Z,32.4
2018-06-10T15:27:01.472Z,32.5
2018-06-10T15:32:01.388Z,32.5
2018-06-10T15:37:01.450Z,32.8
2018-06-10T15:42:01.415Z,32.2
2018-06-10T15:47:01.542Z,32.3
2018-06-10T15:52:02.495Z,32.5
2018-06-10T15:57:01.934Z,33.0
2018-06-10T16:02:01.439Z,31.9
2018-06-10T16:07:01.522Z,31.4
2018-06-10T16:12:01.400Z,31.1
2018-06-10T16:17:01.488Z,30.2
2018-06-10T16:22:01.413Z,29.5
2018-06-10T16:27:01.575Z,30.0
2018-06-10T16:32:01.452Z,29.3
2018-06-10T16:37:01.458Z,29.2
2018-06-10T16:42:01.403Z,29.3
2018-06-10T16:47:01.453Z,28.7
2018-06-10T16:57:01.524Z,29.4
2018-06-10T17:02:01.433Z,29.4
2018-06-10T17:07:01.462Z,29.4
2018-06-10T17:12:01.578Z,29.7
2018-06-10T17:17:01.462Z,29.8
2018-06-10T17:22:01.416Z,29.8
2018-06-10T17:27:01.386Z,29.8
2018-06-10T17:32:01.359Z,30.6
2018-06-10T17:37:01.580Z,31.0
2018-06-10T17:42:01.389Z,31.3
2018-06-10T17:47:01.458Z,30.3
2018-06-10T17:52:01.394Z,29.4
2018-06-10T17:57:01.522Z,28.2
2018-06-10T18:02:01.397Z,27.3
2018-06-10T18:07:01.448Z,25.8
2018-06-10T18:12:01.384Z,26.1
2018-06-10T18:17:01.515Z,26.2
2018-06-10T18:22:01.510Z,26.4
2018-06-10T18:32:01.524Z,26.3
2018-06-10T18:37:01.521Z,26.4
2018-06-10T18:42:01.356Z,25.1
2018-06-10T18:47:01.510Z,24.0
2018-06-10T18:52:01.389Z,23.0
2018-06-10T18:57:01.459Z,22.1
2018-06-10T19:02:01.452Z,20.8
2018-06-10T19:07:01.453Z,21.4
2018-06-10T19:12:01.387Z,20.7
2018-06-10T19:17:01.483Z,20.3
2018-06-10T19:27:01.479Z,19.0
2018-06-10T19:32:01.383Z,18.1
2018-06-10T19:37:01.383Z,17.7
2018-06-10T19:42:01.396Z,17.3
2018-06-10T19:52:01.604Z,17.0
2018-06-10T19:57:02.182Z,17.0
2018-06-10T20:02:01.427Z,16.6
2018-06-10T20:07:01.386Z,15.7
2018-06-10T20:12:01.387Z,14.5
2018-06-10T20:17:01.496Z,14.0
2018-06-10T20:22:01.457Z,12.8
2018-06-10T20:32:01.656Z,13.4
2018-06-10T20:37:01.557Z,13.5
2018-06-10T20:42:01.459Z,13.2
2018-06-10T20:47:01.465Z,13.8
2018-06-10T20:52:01.421Z,14.2
2018-06-10T20:57:01.389Z,15.0
2018-06-10T21:02:01.722Z,16.0
2018-06-10T21:07:01.579Z,17.8
2018-06-10T21:12:01.390Z,18.6
2018-06-10T21:17:01.513Z,18.1
2018-06-10T21:27:01.452Z,17.9
2018-06-10T21:33:01.355Z,17.6
2018-06-10T21:38:01.447Z,17.7
2018-06-10T21:43:01.364Z,19.0
2018-06-10T21:48:01.513Z,19.8
2018-06-10T21:58:01.484Z,20.1
2018-06-10T22:03:01.428Z,19.7
2018-06-10T22:08:01.502Z,18.7
2018-06-10T22:13:01.420Z,18.4
2018-06-10T22:23:01.595Z,17.5
2018-06-10T22:28:01.544Z,17.3
2018-06-10T22:33:01.393Z,17.1
2018-06-10T22:43:01.593Z,17.2
2018-06-10T22:48:01.499Z,16.9
2018-06-10T23:10:00.908Z,15.2
2018-06-10T23:15:00.885Z,14.5
2018-06-10T23:20:00.913Z,13.7
2018-06-10T23:25:00.889Z,12.8
2018-06-10T23:30:00.990Z,12.6
2018-06-10T23:35:00.894Z,11.6
2018-06-10T23:40:00.955Z,10.7
2018-06-10T23:45:00.900Z,10.8
2018-06-10T23:50:01.082Z,11.4
2018-06-10T23:55:00.894Z,10.8
